sensor_id;sensor_type;location;lat;lon;timestamp;P1;durP1;ratioP1;P2;durP2;ratioP2
75496;SDS011;64074;47.540;19.072;2022-10-16T00:03:09;12.07;;;8.20;;
75496;SDS011;64074;47.540;19.072;2022-10-16T00:06:13;12.03;;;7.77;;
75496;SDS011;64074;47.540;19.072;2022-10-16T00:09:18;13.65;;;8.23;;
75496;SDS011;64074;47.540;19.072;2022-10-16T00:12:27;16.02;;;7.90;;
75496;SDS011;64074;47.540;19.072;2022-10-16T00:15:46;12.23;;;7.78;;
75496;SDS011;64074;47.540;19.072;2022-10-16T00:18:59;12.23;;;7.90;;
75496;SDS011;64074;47.540;19.072;2022-10-16T00:22:03;13.43;;;7.83;;
75496;SDS011;64074;47.540;19.072;2022-10-16T00:25:13;10.32;;;7.80;;
75496;SDS011;64074;47.540;19.072;2022-10-16T00:28:28;10.75;;;7.57;;
75496;SDS011;64074;47.540;19.072;2022-10-16T00:31:49;10.43;;;7.70;;
75496;SDS011;64074;47.540;19.072;2022-10-16T00:35:10;11.90;;;6.77;;
75496;SDS011;64074;47.540;19.072;2022-10-16T00:38:32;11.83;;;6.90;;
75496;SDS011;64074;47.540;19.072;2022-10-16T00:41:53;12.18;;;7.25;;
75496;SDS011;64074;47.540;19.072;2022-10-16T00:45:14;14.25;;;7.40;;
75496;SDS011;64074;47.540;19.072;2022-10-16T00:48:44;12.52;;;7.57;;
75496;SDS011;64074;47.540;19.072;2022-10-16T00:52:04;10.77;;;7.30;;
75496;SDS011;64074;47.540;19.072;2022-10-16T00:55:14;9.73;;;7.03;;
75496;SDS011;64074;47.540;19.072;2022-10-16T00:58:42;10.40;;;7.35;;
75496;SDS011;64074;47.540;19.072;2022-10-16T01:02:03;13.68;;;7.10;;
75496;SDS011;64074;47.540;19.072;2022-10-16T01:05:44;9.57;;;6.95;;
75496;SDS011;64074;47.540;19.072;2022-10-16T01:09:05;9.77;;;6.90;;
75496;SDS011;64074;47.540;19.072;2022-10-16T01:12:23;10.73;;;6.60;;
75496;SDS011;64074;47.540;19.072;2022-10-16T01:15:59;11.52;;;7.05;;
75496;SDS011;64074;47.540;19.072;2022-10-16T01:24:06;13.30;;;6.35;;
75496;SDS011;64074;47.540;19.072;2022-10-16T01:27:27;10.07;;;6.67;;
75496;SDS011;64074;47.540;19.072;2022-10-16T01:30:41;10.73;;;6.43;;
75496;SDS011;64074;47.540;19.072;2022-10-16T01:34:06;11.93;;;6.68;;
75496;SDS011;64074;47.540;19.072;2022-10-16T01:37:30;9.63;;;6.40;;
75496;SDS011;64074;47.540;19.072;2022-10-16T01:40:49;11.85;;;6.90;;
75496;SDS011;64074;47.540;19.072;2022-10-16T01:44:02;13.80;;;6.30;;
75496;SDS011;64074;47.540;19.072;2022-10-16T01:47:21;10.27;;;6.30;;
75496;SDS011;64074;47.540;19.072;2022-10-16T01:50:38;9.98;;;6.00;;
75496;SDS011;64074;47.540;19.072;2022-10-16T01:54:01;9.43;;;6.55;;
75496;SDS011;64074;47.540;19.072;2022-10-16T01:57:08;8.13;;;6.03;;
75496;SDS011;64074;47.540;19.072;2022-10-16T02:00:19;12.13;;;6.23;;
75496;SDS011;64074;47.540;19.072;2022-10-16T02:03:32;8.83;;;6.00;;
75496;SDS011;64074;47.540;19.072;2022-10-16T02:06:50;10.85;;;6.28;;
75496;SDS011;64074;47.540;19.072;2022-10-16T02:10:06;10.02;;;6.50;;
75496;SDS011;64074;47.540;19.072;2022-10-16T02:13:33;10.73;;;6.60;;
75496;SDS011;64074;47.540;19.072;2022-10-16T02:16:59;10.80;;;6.07;;
75496;SDS011;64074;47.540;19.072;2022-10-16T02:20:11;11.80;;;6.57;;
75496;SDS011;64074;47.540;19.072;2022-10-16T02:23:19;10.82;;;6.85;;
75496;SDS011;64074;47.540;19.072;2022-10-16T02:26:44;13.50;;;6.95;;
75496;SDS011;64074;47.540;19.072;2022-10-16T02:30:39;10.68;;;6.15;;
75496;SDS011;64074;47.540;19.072;2022-10-16T02:33:46;10.53;;;6.20;;
75496;SDS011;64074;47.540;19.072;2022-10-16T02:36:50;9.50;;;6.47;;
75496;SDS011;64074;47.540;19.072;2022-10-16T02:40:01;9.55;;;6.30;;
75496;SDS011;64074;47.540;19.072;2022-10-16T02:43:13;11.93;;;6.47;;
75496;SDS011;64074;47.540;19.072;2022-10-16T02:46:36;12.27;;;6.78;;
75496;SDS011;64074;47.540;19.072;2022-10-16T02:50:08;14.27;;;6.70;;
75496;SDS011;64074;47.540;19.072;2022-10-16T02:53:17;10.27;;;6.83;;
75496;SDS011;64074;47.540;19.072;2022-10-16T02:56:47;11.25;;;6.43;;
75496;SDS011;64074;47.540;19.072;2022-10-16T02:59:56;16.45;;;7.22;;
75496;SDS011;64074;47.540;19.072;2022-10-16T03:03:19;12.10;;;7.05;;
75496;SDS011;64074;47.540;19.072;2022-10-16T03:06:56;9.90;;;6.87;;
75496;SDS011;64074;47.540;19.072;2022-10-16T03:26:21;11.23;;;8.10;;
75496;SDS011;64074;47.540;19.072;2022-10-16T03:29:31;13.00;;;7.87;;
75496;SDS011;64074;47.540;19.072;2022-10-16T03:32:45;10.33;;;7.17;;
75496;SDS011;64074;47.540;19.072;2022-10-16T03:35:52;9.80;;;7.13;;
75496;SDS011;64074;47.540;19.072;2022-10-16T03:39:00;12.30;;;7.43;;
75496;SDS011;64074;47.540;19.072;2022-10-16T03:42:03;11.50;;;7.65;;
75496;SDS011;64074;47.540;19.072;2022-10-16T03:45:14;13.37;;;7.83;;
75496;SDS011;64074;47.540;19.072;2022-10-16T03:48:41;10.33;;;7.30;;
75496;SDS011;64074;47.540;19.072;2022-10-16T03:52:08;12.85;;;7.95;;
75496;SDS011;64074;47.540;19.072;2022-10-16T03:55:21;15.98;;;8.00;;
75496;SDS011;64074;47.540;19.072;2022-10-16T03:58:25;13.52;;;7.80;;
75496;SDS011;64074;47.540;19.072;2022-10-16T04:01:34;13.27;;;7.53;;
75496;SDS011;64074;47.540;19.072;2022-10-16T04:04:44;10.13;;;7.20;;
75496;SDS011;64074;47.540;19.072;2022-10-16T04:07:53;10.52;;;7.60;;
75496;SDS011;64074;47.540;19.072;2022-10-16T04:11:04;12.18;;;7.50;;
75496;SDS011;64074;47.540;19.072;2022-10-16T04:14:09;11.43;;;7.60;;
75496;SDS011;64074;47.540;19.072;2022-10-16T04:17:18;12.37;;;8.00;;
75496;SDS011;64074;47.540;19.072;2022-10-16T04:20:33;13.90;;;7.50;;
75496;SDS011;64074;47.540;19.072;2022-10-16T04:23:38;15.93;;;8.52;;
75496;SDS011;64074;47.540;19.072;2022-10-16T04:26:48;12.73;;;9.35;;
75496;SDS011;64074;47.540;19.072;2022-10-16T04:30:09;14.30;;;8.20;;
75496;SDS011;64074;47.540;19.072;2022-10-16T04:33:19;12.67;;;8.50;;
75496;SDS011;64074;47.540;19.072;2022-10-16T04:36:53;17.07;;;9.10;;
75496;SDS011;64074;47.540;19.072;2022-10-16T04:40:15;14.50;;;9.40;;
75496;SDS011;64074;47.540;19.072;2022-10-16T04:43:25;12.88;;;8.95;;
75496;SDS011;64074;47.540;19.072;2022-10-16T04:46:34;17.05;;;9.20;;
75496;SDS011;64074;47.540;19.072;2022-10-16T04:49:44;13.23;;;9.17;;
75496;SDS011;64074;47.540;19.072;2022-10-16T04:52:52;14.33;;;9.23;;
75496;SDS011;64074;47.540;19.072;2022-10-16T04:55:55;14.98;;;9.10;;
75496;SDS011;64074;47.540;19.072;2022-10-16T04:58:59;14.98;;;8.57;;
75496;SDS011;64074;47.540;19.072;2022-10-16T05:02:08;13.05;;;8.85;;
75496;SDS011;64074;47.540;19.072;2022-10-16T05:05:30;14.87;;;9.60;;
75496;SDS011;64074;47.540;19.072;2022-10-16T05:08:58;12.73;;;9.30;;
75496;SDS011;64074;47.540;19.072;2022-10-16T05:12:19;14.98;;;9.60;;
75496;SDS011;64074;47.540;19.072;2022-10-16T05:15:37;14.20;;;8.55;;
75496;SDS011;64074;47.540;19.072;2022-10-16T05:18:46;13.68;;;8.77;;
75496;SDS011;64074;47.540;19.072;2022-10-16T05:22:07;13.13;;;8.60;;
75496;SDS011;64074;47.540;19.072;2022-10-16T05:25:42;13.57;;;9.30;;
75496;SDS011;64074;47.540;19.072;2022-10-16T05:28:57;14.70;;;9.18;;
75496;SDS011;64074;47.540;19.072;2022-10-16T05:32:07;13.60;;;9.10;;
75496;SDS011;64074;47.540;19.072;2022-10-16T05:35:18;14.02;;;9.10;;
75496;SDS011;64074;47.540;19.072;2022-10-16T05:38:27;16.93;;;9.13;;
75496;SDS011;64074;47.540;19.072;2022-10-16T05:41:36;14.70;;;9.03;;
75496;SDS011;64074;47.540;19.072;2022-10-16T05:45:10;13.68;;;9.38;;
75496;SDS011;64074;47.540;19.072;2022-10-16T05:48:32;14.30;;;9.20;;
75496;SDS011;64074;47.540;19.072;2022-10-16T05:51:48;14.20;;;9.73;;
75496;SDS011;64074;47.540;19.072;2022-10-16T05:55:07;17.37;;;9.67;;
75496;SDS011;64074;47.540;19.072;2022-10-16T05:58:41;13.80;;;9.27;;
75496;SDS011;64074;47.540;19.072;2022-10-16T06:02:01;19.45;;;9.40;;
75496;SDS011;64074;47.540;19.072;2022-10-16T06:05:23;12.55;;;9.05;;
75496;SDS011;64074;47.540;19.072;2022-10-16T06:08:45;14.52;;;8.38;;
75496;SDS011;64074;47.540;19.072;2022-10-16T06:12:08;12.83;;;8.50;;
75496;SDS011;64074;47.540;19.072;2022-10-16T06:15:18;13.40;;;8.40;;
75496;SDS011;64074;47.540;19.072;2022-10-16T06:18:50;14.98;;;8.75;;
75496;SDS011;64074;47.540;19.072;2022-10-16T06:22:23;16.58;;;8.55;;
75496;SDS011;64074;47.540;19.072;2022-10-16T06:25:27;11.25;;;8.15;;
75496;SDS011;64074;47.540;19.072;2022-10-16T06:28:36;13.83;;;8.10;;
75496;SDS011;64074;47.540;19.072;2022-10-16T06:32:00;11.23;;;7.63;;
75496;SDS011;64074;47.540;19.072;2022-10-16T06:35:04;13.50;;;8.52;;
75496;SDS011;64074;47.540;19.072;2022-10-16T06:38:11;13.60;;;8.45;;
75496;SDS011;64074;47.540;19.072;2022-10-16T06:41:21;12.13;;;8.45;;
75496;SDS011;64074;47.540;19.072;2022-10-16T06:44:53;12.67;;;8.07;;
75496;SDS011;64074;47.540;19.072;2022-10-16T06:47:57;13.73;;;7.50;;
75496;SDS011;64074;47.540;19.072;2022-10-16T06:51:08;13.32;;;8.35;;
75496;SDS011;64074;47.540;19.072;2022-10-16T06:54:21;12.05;;;8.70;;
75496;SDS011;64074;47.540;19.072;2022-10-16T06:57:50;13.90;;;7.82;;
75496;SDS011;64074;47.540;19.072;2022-10-16T07:01:04;11.60;;;7.70;;
75496;SDS011;64074;47.540;19.072;2022-10-16T07:04:25;12.80;;;8.33;;
75496;SDS011;64074;47.540;19.072;2022-10-16T07:07:35;13.35;;;8.63;;
75496;SDS011;64074;47.540;19.072;2022-10-16T07:10:45;12.75;;;7.90;;
75496;SDS011;64074;47.540;19.072;2022-10-16T07:13:55;11.40;;;8.23;;
75496;SDS011;64074;47.540;19.072;2022-10-16T07:16:59;11.47;;;7.97;;
75496;SDS011;64074;47.540;19.072;2022-10-16T07:20:06;11.47;;;7.80;;
75496;SDS011;64074;47.540;19.072;2022-10-16T07:23:14;13.18;;;8.18;;
75496;SDS011;64074;47.540;19.072;2022-10-16T07:26:23;13.60;;;8.20;;
75496;SDS011;64074;47.540;19.072;2022-10-16T07:29:28;11.52;;;8.27;;
75496;SDS011;64074;47.540;19.072;2022-10-16T07:32:32;13.20;;;8.40;;
75496;SDS011;64074;47.540;19.072;2022-10-16T07:35:52;13.67;;;8.67;;
75496;SDS011;64074;47.540;19.072;2022-10-16T07:39:02;12.13;;;8.55;;
75496;SDS011;64074;47.540;19.072;2022-10-16T07:42:18;15.40;;;8.45;;
75496;SDS011;64074;47.540;19.072;2022-10-16T07:45:47;12.27;;;8.48;;
75496;SDS011;64074;47.540;19.072;2022-10-16T07:49:12;14.33;;;9.17;;
75496;SDS011;64074;47.540;19.072;2022-10-16T07:52:43;12.47;;;7.80;;
75496;SDS011;64074;47.540;19.072;2022-10-16T07:55:52;12.20;;;8.43;;
75496;SDS011;64074;47.540;19.072;2022-10-16T07:59:29;14.55;;;8.60;;
75496;SDS011;64074;47.540;19.072;2022-10-16T08:02:41;12.38;;;8.50;;
75496;SDS011;64074;47.540;19.072;2022-10-16T08:05:51;12.03;;;8.77;;
75496;SDS011;64074;47.540;19.072;2022-10-16T08:09:32;13.57;;;8.23;;
75496;SDS011;64074;47.540;19.072;2022-10-16T08:12:42;14.13;;;8.30;;
75496;SDS011;64074;47.540;19.072;2022-10-16T08:15:53;13.40;;;8.52;;
75496;SDS011;64074;47.540;19.072;2022-10-16T08:18:58;15.23;;;8.48;;
75496;SDS011;64074;47.540;19.072;2022-10-16T08:22:08;12.90;;;8.40;;
75496;SDS011;64074;47.540;19.072;2022-10-16T08:25:18;12.83;;;8.00;;
75496;SDS011;64074;47.540;19.072;2022-10-16T08:28:38;12.00;;;8.77;;
75496;SDS011;64074;47.540;19.072;2022-10-16T08:31:58;12.80;;;8.43;;
75496;SDS011;64074;47.540;19.072;2022-10-16T08:35:18;13.73;;;8.48;;
75496;SDS011;64074;47.540;19.072;2022-10-16T08:38:37;11.43;;;8.10;;
75496;SDS011;64074;47.540;19.072;2022-10-16T08:48:35;11.32;;;7.68;;
75496;SDS011;64074;47.540;19.072;2022-10-16T08:52:10;11.90;;;8.20;;
75496;SDS011;64074;47.540;19.072;2022-10-16T08:55:31;17.83;;;8.80;;
75496;SDS011;64074;47.540;19.072;2022-10-16T08:58:48;12.63;;;8.20;;
75496;SDS011;64074;47.540;19.072;2022-10-16T09:01:57;13.80;;;9.18;;
75496;SDS011;64074;47.540;19.072;2022-10-16T09:05:15;12.30;;;8.52;;
75496;SDS011;64074;47.540;19.072;2022-10-16T09:09:02;13.07;;;7.80;;
75496;SDS011;64074;47.540;19.072;2022-10-16T09:22:29;13.73;;;8.68;;
75496;SDS011;64074;47.540;19.072;2022-10-16T09:25:35;14.35;;;8.25;;
75496;SDS011;64074;47.540;19.072;2022-10-16T09:28:49;11.90;;;8.43;;
75496;SDS011;64074;47.540;19.072;2022-10-16T09:32:16;16.83;;;10.80;;
75496;SDS011;64074;47.540;19.072;2022-10-16T09:35:32;13.95;;;8.73;;
75496;SDS011;64074;47.540;19.072;2022-10-16T09:39:04;13.68;;;8.20;;
75496;SDS011;64074;47.540;19.072;2022-10-16T09:42:20;12.35;;;8.20;;
75496;SDS011;64074;47.540;19.072;2022-10-16T09:45:40;12.17;;;7.47;;
75496;SDS011;64074;47.540;19.072;2022-10-16T09:48:55;10.77;;;8.27;;
75496;SDS011;64074;47.540;19.072;2022-10-16T09:52:04;12.38;;;8.38;;
75496;SDS011;64074;47.540;19.072;2022-10-16T09:55:15;15.30;;;8.40;;
75496;SDS011;64074;47.540;19.072;2022-10-16T09:58:23;14.68;;;8.02;;
75496;SDS011;64074;47.540;19.072;2022-10-16T10:01:37;12.10;;;8.33;;
75496;SDS011;64074;47.540;19.072;2022-10-16T10:04:58;13.40;;;8.07;;
75496;SDS011;64074;47.540;19.072;2022-10-16T10:08:21;14.00;;;8.25;;
75496;SDS011;64074;47.540;19.072;2022-10-16T10:15:13;10.70;;;7.90;;
75496;SDS011;64074;47.540;19.072;2022-10-16T10:18:24;9.43;;;7.07;;
75496;SDS011;64074;47.540;19.072;2022-10-16T10:21:35;13.50;;;8.07;;
75496;SDS011;64074;47.540;19.072;2022-10-16T10:28:42;9.73;;;6.97;;
75496;SDS011;64074;47.540;19.072;2022-10-16T10:31:59;10.20;;;7.75;;
75496;SDS011;64074;47.540;19.072;2022-10-16T10:39:06;10.43;;;7.13;;
75496;SDS011;64074;47.540;19.072;2022-10-16T10:45:46;13.80;;;7.57;;
75496;SDS011;64074;47.540;19.072;2022-10-16T11:02:48;12.82;;;7.50;;
75496;SDS011;64074;47.540;19.072;2022-10-16T11:09:18;9.80;;;6.80;;
75496;SDS011;64074;47.540;19.072;2022-10-16T11:12:42;8.50;;;6.50;;
75496;SDS011;64074;47.540;19.072;2022-10-16T11:16:00;8.90;;;6.20;;
75496;SDS011;64074;47.540;19.072;2022-10-16T11:22:59;7.53;;;6.07;;
75496;SDS011;64074;47.540;19.072;2022-10-16T11:26:21;8.90;;;6.50;;
75496;SDS011;64074;47.540;19.072;2022-10-16T11:29:35;9.80;;;6.70;;
75496;SDS011;64074;47.540;19.072;2022-10-16T11:36:47;10.85;;;6.80;;
75496;SDS011;64074;47.540;19.072;2022-10-16T11:40:05;10.18;;;6.65;;
75496;SDS011;64074;47.540;19.072;2022-10-16T11:43:32;7.40;;;5.97;;
75496;SDS011;64074;47.540;19.072;2022-10-16T11:47:01;9.17;;;6.33;;
75496;SDS011;64074;47.540;19.072;2022-10-16T11:51:21;9.13;;;5.72;;
75496;SDS011;64074;47.540;19.072;2022-10-16T11:55:09;7.35;;;4.97;;
75496;SDS011;64074;47.540;19.072;2022-10-16T12:01:44;9.90;;;5.70;;
75496;SDS011;64074;47.540;19.072;2022-10-16T12:05:06;7.83;;;5.50;;
75496;SDS011;64074;47.540;19.072;2022-10-16T12:09:16;7.40;;;5.65;;
75496;SDS011;64074;47.540;19.072;2022-10-16T12:15:44;6.25;;;4.95;;
75496;SDS011;64074;47.540;19.072;2022-10-16T12:19:12;15.20;;;10.37;;
75496;SDS011;64074;47.540;19.072;2022-10-16T12:22:33;6.47;;;5.07;;
75496;SDS011;64074;47.540;19.072;2022-10-16T12:25:53;7.18;;;5.95;;
75496;SDS011;64074;47.540;19.072;2022-10-16T12:32:37;7.80;;;5.82;;
75496;SDS011;64074;47.540;19.072;2022-10-16T12:35:54;8.50;;;5.60;;
75496;SDS011;64074;47.540;19.072;2022-10-16T12:39:19;10.33;;;5.93;;
75496;SDS011;64074;47.540;19.072;2022-10-16T12:42:55;6.43;;;5.63;;
75496;SDS011;64074;47.540;19.072;2022-10-16T12:49:30;11.73;;;5.00;;
75496;SDS011;64074;47.540;19.072;2022-10-16T12:53:02;7.37;;;5.10;;
75496;SDS011;64074;47.540;19.072;2022-10-16T13:03:43;6.88;;;5.05;;
75496;SDS011;64074;47.540;19.072;2022-10-16T13:10:53;6.73;;;5.00;;
75496;SDS011;64074;47.540;19.072;2022-10-16T13:18:10;7.05;;;4.80;;
75496;SDS011;64074;47.540;19.072;2022-10-16T13:21:39;6.45;;;5.10;;
75496;SDS011;64074;47.540;19.072;2022-10-16T13:28:50;8.50;;;4.47;;
75496;SDS011;64074;47.540;19.072;2022-10-16T13:31:59;6.27;;;5.10;;
75496;SDS011;64074;47.540;19.072;2022-10-16T13:35:23;6.97;;;4.35;;
75496;SDS011;64074;47.540;19.072;2022-10-16T13:38:46;6.65;;;4.70;;
75496;SDS011;64074;47.540;19.072;2022-10-16T13:45:21;7.87;;;5.23;;
75496;SDS011;64074;47.540;19.072;2022-10-16T13:48:33;6.10;;;4.43;;
75496;SDS011;64074;47.540;19.072;2022-10-16T13:52:01;7.15;;;4.60;;
75496;SDS011;64074;47.540;19.072;2022-10-16T13:55:17;7.32;;;4.95;;
75496;SDS011;64074;47.540;19.072;2022-10-16T13:58:22;6.25;;;4.80;;
75496;SDS011;64074;47.540;19.072;2022-10-16T14:01:28;6.47;;;4.63;;
75496;SDS011;64074;47.540;19.072;2022-10-16T14:04:59;8.17;;;5.00;;
75496;SDS011;64074;47.540;19.072;2022-10-16T14:08:12;6.45;;;4.78;;
75496;SDS011;64074;47.540;19.072;2022-10-16T14:11:23;6.50;;;4.60;;
75496;SDS011;64074;47.540;19.072;2022-10-16T14:14:34;6.32;;;4.57;;
75496;SDS011;64074;47.540;19.072;2022-10-16T14:17:48;5.80;;;4.47;;
75496;SDS011;64074;47.540;19.072;2022-10-16T14:21:03;5.73;;;4.23;;
75496;SDS011;64074;47.540;19.072;2022-10-16T14:24:49;7.60;;;4.60;;
75496;SDS011;64074;47.540;19.072;2022-10-16T14:28:02;6.20;;;4.45;;
75496;SDS011;64074;47.540;19.072;2022-10-16T14:34:36;6.23;;;4.30;;
75496;SDS011;64074;47.540;19.072;2022-10-16T14:37:50;5.20;;;4.37;;
75496;SDS011;64074;47.540;19.072;2022-10-16T14:41:01;6.97;;;4.60;;
75496;SDS011;64074;47.540;19.072;2022-10-16T14:44:16;6.95;;;4.50;;
75496;SDS011;64074;47.540;19.072;2022-10-16T14:47:33;5.45;;;4.22;;
75496;SDS011;64074;47.540;19.072;2022-10-16T14:50:58;5.47;;;4.50;;
75496;SDS011;64074;47.540;19.072;2022-10-16T14:54:20;8.00;;;4.57;;
75496;SDS011;64074;47.540;19.072;2022-10-16T14:57:42;7.55;;;5.05;;
75496;SDS011;64074;47.540;19.072;2022-10-16T15:00:53;5.18;;;4.10;;
75496;SDS011;64074;47.540;19.072;2022-10-16T15:04:25;6.68;;;4.20;;
75496;SDS011;64074;47.540;19.072;2022-10-16T15:07:50;6.17;;;4.40;;
75496;SDS011;64074;47.540;19.072;2022-10-16T15:11:14;7.30;;;4.40;;
75496;SDS011;64074;47.540;19.072;2022-10-16T15:14:30;6.50;;;4.15;;
75496;SDS011;64074;47.540;19.072;2022-10-16T15:17:50;5.47;;;4.25;;
75496;SDS011;64074;47.540;19.072;2022-10-16T15:21:07;7.53;;;4.25;;
75496;SDS011;64074;47.540;19.072;2022-10-16T15:24:13;6.07;;;4.40;;
75496;SDS011;64074;47.540;19.072;2022-10-16T15:27:22;7.00;;;4.63;;
75496;SDS011;64074;47.540;19.072;2022-10-16T15:30:33;6.13;;;4.57;;
75496;SDS011;64074;47.540;19.072;2022-10-16T15:33:54;5.80;;;4.63;;
75496;SDS011;64074;47.540;19.072;2022-10-16T15:37:18;10.13;;;5.30;;
75496;SDS011;64074;47.540;19.072;2022-10-16T15:40:29;5.93;;;4.30;;
75496;SDS011;64074;47.540;19.072;2022-10-16T15:43:58;6.70;;;4.30;;
75496;SDS011;64074;47.540;19.072;2022-10-16T15:47:25;6.68;;;4.68;;
75496;SDS011;64074;47.540;19.072;2022-10-16T15:50:37;6.18;;;4.07;;
75496;SDS011;64074;47.540;19.072;2022-10-16T15:54:13;8.75;;;4.80;;
75496;SDS011;64074;47.540;19.072;2022-10-16T15:57:36;7.03;;;4.67;;
75496;SDS011;64074;47.540;19.072;2022-10-16T16:00:59;9.30;;;4.70;;
75496;SDS011;64074;47.540;19.072;2022-10-16T16:04:10;9.00;;;5.13;;
75496;SDS011;64074;47.540;19.072;2022-10-16T16:07:52;6.65;;;4.82;;
75496;SDS011;64074;47.540;19.072;2022-10-16T16:11:10;5.65;;;4.72;;
75496;SDS011;64074;47.540;19.072;2022-10-16T16:14:20;7.53;;;4.33;;
75496;SDS011;64074;47.540;19.072;2022-10-16T16:17:30;7.73;;;4.90;;
75496;SDS011;64074;47.540;19.072;2022-10-16T16:20:41;7.78;;;5.55;;
75496;SDS011;64074;47.540;19.072;2022-10-16T16:23:58;10.25;;;5.07;;
75496;SDS011;64074;47.540;19.072;2022-10-16T16:27:01;9.80;;;5.38;;
75496;SDS011;64074;47.540;19.072;2022-10-16T16:30:13;8.23;;;4.77;;
75496;SDS011;64074;47.540;19.072;2022-10-16T16:33:22;9.77;;;6.00;;
75496;SDS011;64074;47.540;19.072;2022-10-16T16:36:31;10.95;;;5.75;;
75496;SDS011;64074;47.540;19.072;2022-10-16T16:39:46;9.85;;;5.75;;
75496;SDS011;64074;47.540;19.072;2022-10-16T16:43:06;8.60;;;5.55;;
75496;SDS011;64074;47.540;19.072;2022-10-16T16:46:27;7.30;;;5.40;;
75496;SDS011;64074;47.540;19.072;2022-10-16T16:49:55;9.77;;;5.27;;
75496;SDS011;64074;47.540;19.072;2022-10-16T16:53:18;9.00;;;5.93;;
75496;SDS011;64074;47.540;19.072;2022-10-16T16:56:35;9.45;;;6.60;;
75496;SDS011;64074;47.540;19.072;2022-10-16T16:59:59;11.65;;;6.95;;
75496;SDS011;64074;47.540;19.072;2022-10-16T17:03:10;9.43;;;7.67;;
75496;SDS011;64074;47.540;19.072;2022-10-16T17:06:39;11.20;;;6.70;;
75496;SDS011;64074;47.540;19.072;2022-10-16T17:10:04;12.60;;;7.45;;
75496;SDS011;64074;47.540;19.072;2022-10-16T17:13:15;9.27;;;6.85;;
75496;SDS011;64074;47.540;19.072;2022-10-16T17:16:44;12.93;;;7.30;;
75496;SDS011;64074;47.540;19.072;2022-10-16T17:20:11;9.93;;;6.70;;
75496;SDS011;64074;47.540;19.072;2022-10-16T17:23:31;9.20;;;6.67;;
75496;SDS011;64074;47.540;19.072;2022-10-16T17:26:56;10.68;;;6.40;;
75496;SDS011;64074;47.540;19.072;2022-10-16T17:30:18;8.93;;;6.30;;
75496;SDS011;64074;47.540;19.072;2022-10-16T17:33:38;14.18;;;7.00;;
75496;SDS011;64074;47.540;19.072;2022-10-16T17:36:59;28.73;;;8.40;;
75496;SDS011;64074;47.540;19.072;2022-10-16T17:40:19;16.03;;;7.83;;
75496;SDS011;64074;47.540;19.072;2022-10-16T17:43:42;27.63;;;8.50;;
75496;SDS011;64074;47.540;19.072;2022-10-16T17:47:02;13.85;;;7.30;;
75496;SDS011;64074;47.540;19.072;2022-10-16T17:50:22;16.33;;;7.57;;
75496;SDS011;64074;47.540;19.072;2022-10-16T17:53:49;16.30;;;7.60;;
75496;SDS011;64074;47.540;19.072;2022-10-16T17:57:05;13.00;;;7.47;;
75496;SDS011;64074;47.540;19.072;2022-10-16T18:00:08;15.30;;;8.27;;
75496;SDS011;64074;47.540;19.072;2022-10-16T18:03:12;16.52;;;8.23;;
75496;SDS011;64074;47.540;19.072;2022-10-16T18:06:22;12.52;;;7.72;;
75496;SDS011;64074;47.540;19.072;2022-10-16T18:09:58;17.77;;;8.73;;
75496;SDS011;64074;47.540;19.072;2022-10-16T18:13:27;11.10;;;8.50;;
75496;SDS011;64074;47.540;19.072;2022-10-16T18:16:41;13.35;;;8.05;;
75496;SDS011;64074;47.540;19.072;2022-10-16T18:20:10;11.43;;;7.80;;
75496;SDS011;64074;47.540;19.072;2022-10-16T18:23:30;13.30;;;8.30;;
75496;SDS011;64074;47.540;19.072;2022-10-16T18:26:54;13.17;;;8.60;;
75496;SDS011;64074;47.540;19.072;2022-10-16T18:30:12;14.70;;;8.93;;
75496;SDS011;64074;47.540;19.072;2022-10-16T18:33:40;17.58;;;9.50;;
75496;SDS011;64074;47.540;19.072;2022-10-16T18:37:02;16.65;;;9.68;;
75496;SDS011;64074;47.540;19.072;2022-10-16T18:40:24;18.60;;;11.65;;
75496;SDS011;64074;47.540;19.072;2022-10-16T18:43:45;21.63;;;12.77;;
75496;SDS011;64074;47.540;19.072;2022-10-16T18:47:03;22.93;;;14.13;;
75496;SDS011;64074;47.540;19.072;2022-10-16T18:50:31;22.73;;;14.15;;
75496;SDS011;64074;47.540;19.072;2022-10-16T18:53:50;21.17;;;13.80;;
75496;SDS011;64074;47.540;19.072;2022-10-16T18:57:11;24.05;;;14.18;;
75496;SDS011;64074;47.540;19.072;2022-10-16T19:00:35;24.50;;;14.57;;
75496;SDS011;64074;47.540;19.072;2022-10-16T19:03:53;25.60;;;14.37;;
75496;SDS011;64074;47.540;19.072;2022-10-16T19:07:18;24.25;;;14.63;;
75496;SDS011;64074;47.540;19.072;2022-10-16T19:10:40;21.77;;;13.75;;
75496;SDS011;64074;47.540;19.072;2022-10-16T19:13:51;20.42;;;13.30;;
75496;SDS011;64074;47.540;19.072;2022-10-16T19:17:25;25.00;;;14.27;;
75496;SDS011;64074;47.540;19.072;2022-10-16T19:20:47;21.30;;;14.10;;
75496;SDS011;64074;47.540;19.072;2022-10-16T19:24:10;21.73;;;13.77;;
75496;SDS011;64074;47.540;19.072;2022-10-16T19:27:33;22.52;;;14.68;;
75496;SDS011;64074;47.540;19.072;2022-10-16T19:30:51;21.73;;;14.02;;
75496;SDS011;64074;47.540;19.072;2022-10-16T19:33:59;22.80;;;14.23;;
75496;SDS011;64074;47.540;19.072;2022-10-16T19:37:10;22.00;;;14.53;;
75496;SDS011;64074;47.540;19.072;2022-10-16T19:40:22;22.15;;;14.43;;
75496;SDS011;64074;47.540;19.072;2022-10-16T19:43:36;25.13;;;13.63;;
75496;SDS011;64074;47.540;19.072;2022-10-16T19:46:57;24.40;;;14.32;;
75496;SDS011;64074;47.540;19.072;2022-10-16T19:50:07;22.97;;;14.07;;
75496;SDS011;64074;47.540;19.072;2022-10-16T19:53:41;24.23;;;14.77;;
75496;SDS011;64074;47.540;19.072;2022-10-16T19:57:02;25.98;;;13.90;;
75496;SDS011;64074;47.540;19.072;2022-10-16T20:00:23;22.40;;;15.07;;
75496;SDS011;64074;47.540;19.072;2022-10-16T20:03:46;24.52;;;14.25;;
75496;SDS011;64074;47.540;19.072;2022-10-16T20:07:07;23.67;;;14.70;;
75496;SDS011;64074;47.540;19.072;2022-10-16T20:10:22;24.47;;;14.90;;
75496;SDS011;64074;47.540;19.072;2022-10-16T20:13:27;25.90;;;14.48;;
75496;SDS011;64074;47.540;19.072;2022-10-16T20:16:35;22.52;;;15.90;;
75496;SDS011;64074;47.540;19.072;2022-10-16T20:19:44;23.38;;;15.52;;
75496;SDS011;64074;47.540;19.072;2022-10-16T20:22:51;25.27;;;15.70;;
75496;SDS011;64074;47.540;19.072;2022-10-16T20:25:59;23.40;;;15.10;;
75496;SDS011;64074;47.540;19.072;2022-10-16T20:29:12;28.20;;;16.27;;
75496;SDS011;64074;47.540;19.072;2022-10-16T20:32:23;22.92;;;14.60;;
75496;SDS011;64074;47.540;19.072;2022-10-16T20:35:50;27.83;;;16.60;;
75496;SDS011;64074;47.540;19.072;2022-10-16T20:39:00;22.93;;;15.00;;
75496;SDS011;64074;47.540;19.072;2022-10-16T20:42:18;23.63;;;14.77;;
75496;SDS011;64074;47.540;19.072;2022-10-16T20:45:27;27.88;;;17.17;;
75496;SDS011;64074;47.540;19.072;2022-10-16T20:48:37;25.65;;;16.30;;
75496;SDS011;64074;47.540;19.072;2022-10-16T20:51:49;30.77;;;15.75;;
75496;SDS011;64074;47.540;19.072;2022-10-16T20:54:55;25.93;;;16.93;;
75496;SDS011;64074;47.540;19.072;2022-10-16T20:57:59;27.43;;;16.97;;
75496;SDS011;64074;47.540;19.072;2022-10-16T21:01:09;30.77;;;17.17;;
75496;SDS011;64074;47.540;19.072;2022-10-16T21:04:26;26.27;;;17.23;;
75496;SDS011;64074;47.540;19.072;2022-10-16T21:07:49;29.02;;;17.20;;
75496;SDS011;64074;47.540;19.072;2022-10-16T21:11:15;28.10;;;16.70;;
75496;SDS011;64074;47.540;19.072;2022-10-16T21:14:26;25.80;;;16.83;;
75496;SDS011;64074;47.540;19.072;2022-10-16T21:17:55;25.75;;;15.70;;